createdAt,value
2019-01-23T00:01:58.869Z,-5.40
2019-01-23T00:04:29.941Z,-5.40
2019-01-23T00:06:59.867Z,-5.40
2019-01-23T00:09:31.023Z,-5.40
2019-01-23T00:12:02.030Z,-5.30
2019-01-23T00:14:33.747Z,-5.30
2019-01-23T00:17:05.461Z,-5.30
2019-01-23T00:19:36.512Z,-5.30
2019-01-23T00:22:07.705Z,-5.30
2019-01-23T00:24:38.743Z,-5.30
2019-01-23T00:27:08.742Z,-5.30
2019-01-23T00:29:39.713Z,-5.30
2019-01-23T00:32:10.782Z,-5.20
2019-01-23T00:34:41.911Z,-5.30
2019-01-23T00:37:11.872Z,-5.20
2019-01-23T00:39:43.064Z,-5.20
2019-01-23T00:42:12.982Z,-5.20
2019-01-23T00:44:44.030Z,-5.30
2019-01-23T00:47:15.104Z,-5.20
2019-01-23T00:49:47.103Z,-5.20
2019-01-23T00:52:18.142Z,-5.30
2019-01-23T00:54:48.146Z,-5.20
2019-01-23T00:57:19.263Z,-5.20
2019-01-23T00:59:49.222Z,-5.30
2019-01-23T01:02:20.231Z,-5.30
2019-01-23T01:04:51.382Z,-5.30
2019-01-23T01:07:21.389Z,-5.20
2019-01-23T01:09:51.822Z,-5.30
2019-01-23T01:12:22.835Z,-5.20
2019-01-23T01:14:55.382Z,-5.30
2019-01-23T01:17:26.472Z,-5.30
2019-01-23T01:19:58.981Z,-5.30
2019-01-23T01:22:28.904Z,-5.30
2019-01-23T01:24:59.950Z,-5.30
2019-01-23T01:27:33.462Z,-5.30
2019-01-23T01:30:04.543Z,-5.30
2019-01-23T01:32:34.542Z,-5.30
2019-01-23T01:35:05.589Z,-5.30
2019-01-23T01:37:36.671Z,-5.30
2019-01-23T01:40:12.437Z,-5.30
2019-01-23T01:42:42.616Z,-5.30
2019-01-23T01:45:13.581Z,-5.30
2019-01-23T01:47:43.590Z,-5.30
2019-01-23T01:50:19.742Z,-5.30
2019-01-23T01:52:50.782Z,-5.30
2019-01-23T01:55:20.742Z,-5.30
2019-01-23T01:57:52.150Z,-5.30
2019-01-23T02:00:25.154Z,-5.30
2019-01-23T02:02:59.024Z,-5.30
2019-01-23T02:05:30.430Z,-5.30
2019-01-23T02:08:01.511Z,-5.40
2019-01-23T02:10:32.662Z,-5.30
2019-01-23T02:13:03.747Z,-5.30
2019-01-23T02:15:34.782Z,-5.30
2019-01-23T02:18:05.792Z,-5.30
2019-01-23T02:20:37.671Z,-5.40
2019-01-23T02:23:08.795Z,-5.30
2019-01-23T02:25:39.786Z,-5.40
2019-01-23T02:28:09.822Z,-5.30
2019-01-23T02:30:42.583Z,-5.40
2019-01-23T02:33:13.790Z,-5.30
2019-01-23T02:35:43.702Z,-5.30
2019-01-23T02:38:14.783Z,-5.40
2019-01-23T02:40:44.130Z,-5.30
2019-01-23T02:43:15.142Z,-5.30
2019-01-23T02:45:48.463Z,-5.30
2019-01-23T02:48:20.272Z,-5.30
2019-01-23T02:50:51.264Z,-5.30
2019-01-23T02:53:22.983Z,-5.30
2019-01-23T02:55:54.106Z,-5.30
2019-01-23T02:58:25.190Z,-5.30
2019-01-23T03:00:55.263Z,-5.30
2019-01-23T03:03:26.186Z,-5.30
2019-01-23T03:05:57.191Z,-5.30
2019-01-23T03:08:28.303Z,-5.20
2019-01-23T03:10:59.390Z,-5.20
2019-01-23T03:13:30.431Z,-5.20
2019-01-23T03:16:03.022Z,-5.20
2019-01-23T03:18:34.903Z,-5.20
2019-01-23T03:21:05.990Z,-5.20
2019-01-23T03:23:37.148Z,-5.20
2019-01-23T03:26:08.223Z,-5.20
2019-01-23T03:28:38.230Z,-5.20
2019-01-23T03:31:10.032Z,-5.20
2019-01-23T03:33:41.128Z,-5.20
2019-01-23T03:36:12.190Z,-5.20
2019-01-23T03:38:43.230Z,-5.20
2019-01-23T03:41:14.311Z,-5.10
2019-01-23T03:43:44.239Z,-5.20
2019-01-23T03:46:15.354Z,-5.10
2019-01-23T03:48:46.430Z,-5.20
2019-01-23T03:51:16.392Z,-5.10
2019-01-23T03:53:47.474Z,-5.10
2019-01-23T03:56:17.465Z,-5.20
2019-01-23T03:58:48.504Z,-5.20
2019-01-23T04:01:21.750Z,-5.20
2019-01-23T04:03:52.863Z,-5.20
2019-01-23T04:06:23.871Z,-5.20
2019-01-23T04:08:53.827Z,-5.20
2019-01-23T04:11:24.910Z,-5.20
2019-01-23T04:13:55.952Z,-5.20
2019-01-23T04:16:26.590Z,-5.20
2019-01-23T04:18:57.703Z,-5.20
2019-01-23T04:21:27.582Z,-5.20
2019-01-23T04:23:58.663Z,-5.20
2019-01-23T04:26:27.985Z,-5.30
2019-01-23T04:28:57.784Z,-5.40
2019-01-23T04:31:32.071Z,-5.40
2019-01-23T04:34:03.802Z,-5.40
2019-01-23T04:36:37.115Z,-5.40
2019-01-23T04:39:09.715Z,-5.50
2019-01-23T04:41:40.824Z,-5.40
2019-01-23T04:44:11.866Z,-5.40
2019-01-23T04:46:42.867Z,-5.40
2019-01-23T04:49:16.342Z,-5.40
2019-01-23T04:51:52.037Z,-5.30
2019-01-23T04:54:23.672Z,-5.30
2019-01-23T04:56:54.682Z,-5.30
2019-01-23T04:59:25.663Z,-5.30
2019-01-23T05:01:58.143Z,-5.40
2019-01-23T05:04:30.708Z,-5.40
2019-01-23T05:07:05.254Z,-5.50
2019-01-23T05:09:34.907Z,-5.50
2019-01-23T05:12:05.955Z,-5.50
2019-01-23T05:14:36.297Z,-5.50
2019-01-23T05:17:09.353Z,-5.50
2019-01-23T05:19:38.880Z,-5.50
2019-01-23T05:22:09.863Z,-5.50
2019-01-23T05:24:42.193Z,-5.50
2019-01-23T05:27:13.631Z,-5.60
2019-01-23T05:29:43.551Z,-5.60
2019-01-23T05:32:14.566Z,-5.60
2019-01-23T05:34:44.428Z,-5.60
2019-01-23T05:37:15.511Z,-5.60
2019-01-23T05:39:46.399Z,-5.60
2019-01-23T05:42:17.386Z,-5.60
2019-01-23T05:44:48.383Z,-5.60
2019-01-23T05:47:19.553Z,-5.60
2019-01-23T05:49:49.435Z,-5.60
2019-01-23T05:52:23.693Z,-5.50
2019-01-23T05:54:54.668Z,-5.50
2019-01-23T05:57:27.178Z,-5.50
2019-01-23T06:00:02.544Z,-5.50
2019-01-23T06:02:33.942Z,-5.50
2019-01-23T06:05:05.023Z,-5.50
2019-01-23T06:07:34.386Z,-5.50
2019-01-23T06:10:05.463Z,-5.60
2019-01-23T06:12:36.509Z,-5.60
2019-01-23T06:15:10.744Z,-5.70
2019-01-23T06:17:41.831Z,-5.70
2019-01-23T06:20:15.870Z,-5.70
2019-01-23T06:22:45.871Z,-5.70
2019-01-23T06:25:17.081Z,-5.60
2019-01-23T06:27:48.155Z,-5.60
2019-01-23T06:30:26.431Z,-5.60
2019-01-23T06:32:56.390Z,-5.60
2019-01-23T06:35:27.507Z,-5.60
2019-01-23T06:37:58.582Z,-5.60
2019-01-23T06:40:29.670Z,-5.70
2019-01-23T06:42:59.622Z,-5.60
2019-01-23T06:45:30.347Z,-5.70
2019-01-23T06:48:01.343Z,-5.70
2019-01-23T06:50:32.430Z,-5.70
2019-01-23T06:53:13.828Z,-5.70
2019-01-23T06:55:40.782Z,-5.80
2019-01-23T06:58:10.705Z,-5.90
2019-01-23T07:00:40.701Z,-5.90
2019-01-23T07:03:11.709Z,-5.90
2019-01-23T07:05:41.670Z,-6.00
2019-01-23T07:08:12.710Z,-6.00
2019-01-23T07:10:43.741Z,-5.90
2019-01-23T07:13:14.832Z,-5.80
2019-01-23T07:15:45.834Z,-5.80
2019-01-23T07:18:15.778Z,-5.70
2019-01-23T07:20:46.901Z,-5.70
2019-01-23T07:23:19.518Z,-5.70
2019-01-23T07:25:51.106Z,-5.70
2019-01-23T07:28:22.190Z,-5.80
2019-01-23T07:30:55.393Z,-5.80
2019-01-23T07:33:26.428Z,-5.90
2019-01-23T07:35:57.510Z,-5.80
2019-01-23T07:38:28.623Z,-5.80
2019-01-23T07:41:01.230Z,-5.90
2019-01-23T07:43:32.227Z,-5.90
2019-01-23T07:46:03.583Z,-5.90
2019-01-23T07:48:33.484Z,-5.80
2019-01-23T07:51:06.782Z,-5.80
2019-01-23T07:53:37.826Z,-5.80
2019-01-23T07:56:08.825Z,-5.80
2019-01-23T07:58:39.222Z,-5.90
2019-01-23T08:01:10.191Z,-5.90
2019-01-23T08:03:41.230Z,-6.00
2019-01-23T08:06:11.270Z,-5.90
2019-01-23T08:08:43.264Z,-5.80
2019-01-23T08:11:14.304Z,-5.90
2019-01-23T08:13:45.393Z,-5.80
2019-01-23T08:16:15.387Z,-5.80
2019-01-23T08:18:46.430Z,-5.80
2019-01-23T08:21:17.466Z,-5.80
2019-01-23T08:23:48.550Z,-5.80
2019-01-23T08:26:18.423Z,-5.80
2019-01-23T08:28:50.142Z,-5.80
2019-01-23T08:31:20.023Z,-5.60
2019-01-23T08:33:51.111Z,-5.50
2019-01-23T08:36:22.069Z,-5.30
2019-01-23T08:38:51.911Z,-5.30
2019-01-23T08:41:23.034Z,-5.10
2019-01-23T08:43:54.141Z,-5.20
2019-01-23T08:46:25.142Z,-5.20
2019-01-23T08:48:56.110Z,-5.20
2019-01-23T08:51:26.022Z,-5.30
2019-01-23T08:53:57.907Z,-5.40
2019-01-23T08:56:31.005Z,-5.50
2019-01-23T08:59:01.063Z,-5.60
2019-01-23T09:01:32.073Z,-5.50
2019-01-23T09:04:03.062Z,-5.50
2019-01-23T09:06:34.222Z,-5.50
2019-01-23T09:09:06.512Z,-5.60
2019-01-23T09:11:37.587Z,-5.40
2019-01-23T09:14:07.593Z,-5.50
2019-01-23T09:16:37.582Z,-5.40
2019-01-23T09:19:08.583Z,-5.40
2019-01-23T09:21:39.624Z,-5.40
2019-01-23T09:24:10.665Z,-5.40
2019-01-23T09:26:43.303Z,-5.40
2019-01-23T09:29:14.342Z,-5.40
2019-01-23T09:31:57.470Z,-5.40
2019-01-23T09:34:31.702Z,-5.30
2019-01-23T09:37:11.862Z,-5.40
2019-01-23T09:39:59.584Z,-5.40
2019-01-23T09:42:49.983Z,-5.70
2019-01-23T09:45:45.137Z,-5.70
2019-01-23T09:48:22.303Z,-5.70
2019-01-23T09:51:27.070Z,-5.70
2019-01-23T09:54:01.304Z,-5.60
2019-01-23T09:56:32.506Z,-5.60
2019-01-23T09:59:03.477Z,-5.60
2019-01-23T10:01:34.583Z,-5.50
2019-01-23T10:04:04.031Z,-5.40
2019-01-23T10:06:35.068Z,-5.30
2019-01-23T10:09:08.422Z,-5.30
2019-01-23T10:11:38.382Z,-5.20
2019-01-23T10:14:12.183Z,-5.10
2019-01-23T10:16:43.265Z,-5.10
2019-01-23T10:19:14.191Z,-5.00
2019-01-23T10:21:45.387Z,-5.10
2019-01-23T10:24:15.350Z,-5.10
2019-01-23T10:26:46.466Z,-5.20
2019-01-23T10:29:18.023Z,-5.20
2019-01-23T10:31:49.121Z,-5.10
2019-01-23T10:34:20.200Z,-5.00
2019-01-23T10:36:51.316Z,-5.20
2019-01-23T10:39:22.070Z,-5.30
2019-01-23T10:41:53.671Z,-5.40
2019-01-23T10:44:26.144Z,-5.30
2019-01-23T10:46:57.062Z,-5.40
2019-01-23T10:49:28.063Z,-5.40
2019-01-23T10:52:03.129Z,-5.40
2019-01-23T10:54:33.862Z,-5.30
2019-01-23T10:57:04.022Z,-5.30
2019-01-23T10:59:35.034Z,-5.30
2019-01-23T11:02:06.062Z,-5.30
2019-01-23T11:04:37.062Z,-5.30
2019-01-23T11:07:07.782Z,-5.50
2019-01-23T11:09:37.822Z,-5.60
2019-01-23T11:12:09.063Z,-5.70
2019-01-23T11:14:40.108Z,-5.50
2019-01-23T11:17:10.023Z,-5.50
2019-01-23T11:19:41.590Z,-5.50
2019-01-23T11:22:12.595Z,-5.40
2019-01-23T11:24:43.671Z,-5.50
2019-01-23T11:27:14.823Z,-5.60
2019-01-23T11:29:45.942Z,-5.70
2019-01-23T11:32:16.912Z,-5.70
2019-01-23T11:34:48.744Z,-5.60
2019-01-23T11:37:19.862Z,-5.60
2019-01-23T11:39:50.911Z,-5.30
2019-01-23T11:42:21.942Z,-5.20
2019-01-23T11:44:51.863Z,-5.20
2019-01-23T11:47:23.063Z,-4.90
2019-01-23T11:49:52.945Z,-4.80
2019-01-23T11:52:24.752Z,-4.50
2019-01-23T11:54:56.596Z,-4.50
2019-01-23T11:57:27.712Z,-4.50
2019-01-23T11:59:58.784Z,-4.60
2019-01-23T12:02:30.930Z,-4.50
2019-01-23T12:05:01.543Z,-4.30
2019-01-23T12:07:31.502Z,-4.30
2019-01-23T12:10:02.504Z,-3.90
2019-01-23T12:12:33.502Z,-4.10
2019-01-23T12:15:04.540Z,-4.30
2019-01-23T12:17:35.581Z,-4.20
2019-01-23T12:20:08.827Z,-3.90
2019-01-23T12:22:41.263Z,-3.80
2019-01-23T12:25:13.394Z,-4.10
2019-01-23T12:27:44.538Z,-4.10
2019-01-23T12:30:17.462Z,-4.30
2019-01-23T12:32:48.470Z,-4.30
2019-01-23T12:35:19.469Z,-4.40
2019-01-23T12:37:50.521Z,-4.40
2019-01-23T12:40:23.864Z,-4.20
2019-01-23T12:42:54.911Z,-4.30
2019-01-23T12:45:28.147Z,-4.40
2019-01-23T12:47:59.182Z,-4.40
2019-01-23T12:50:34.331Z,-4.30
2019-01-23T12:53:04.272Z,-4.20
2019-01-23T12:55:35.342Z,-4.30
2019-01-23T12:58:06.390Z,-4.40
2019-01-23T13:00:37.902Z,-4.50
2019-01-23T13:03:09.263Z,-4.50
2019-01-23T13:05:40.238Z,-4.70
2019-01-23T13:08:11.351Z,-4.70
2019-01-23T13:10:42.354Z,-4.70
2019-01-23T13:13:13.342Z,-4.60
2019-01-23T13:15:43.186Z,-4.60
2019-01-23T13:18:14.191Z,-4.60
2019-01-23T13:20:45.223Z,-4.70
2019-01-23T13:23:19.909Z,-4.60
2019-01-23T13:25:52.242Z,-4.70
2019-01-23T13:28:22.950Z,-4.90
2019-01-23T13:30:52.822Z,-5.00
2019-01-23T13:33:23.822Z,-5.00
2019-01-23T13:35:54.822Z,-5.10
2019-01-23T13:38:27.382Z,-5.00
2019-01-23T13:41:00.025Z,-5.10
2019-01-23T13:43:29.983Z,-5.10
2019-01-23T13:46:00.950Z,-5.10
2019-01-23T13:48:32.160Z,-5.20
2019-01-23T13:51:04.285Z,-5.20
2019-01-23T13:53:34.945Z,-5.20
2019-01-23T13:56:04.983Z,-5.20
2019-01-23T13:58:41.746Z,-5.20
2019-01-23T14:01:07.608Z,-5.00
2019-01-23T14:03:38.671Z,-5.00
2019-01-23T14:06:09.671Z,-5.10
2019-01-23T14:08:40.792Z,-5.10
2019-01-23T14:11:11.942Z,-5.20
2019-01-23T14:13:43.063Z,-5.20
2019-01-23T14:16:12.943Z,-5.20
2019-01-23T14:18:43.943Z,-5.20
2019-01-23T14:21:14.414Z,-5.20
2019-01-23T14:23:45.391Z,-5.10
2019-01-23T14:26:16.388Z,-5.10
2019-01-23T14:28:46.382Z,-5.20
2019-01-23T14:31:17.392Z,-5.20
2019-01-23T14:33:48.422Z,-5.30
2019-01-23T14:36:19.391Z,-5.30
2019-01-23T14:38:49.422Z,-5.40
2019-01-23T14:41:20.473Z,-5.30
2019-01-23T14:43:51.473Z,-5.40
2019-01-23T14:46:22.503Z,-5.40
2019-01-23T14:48:53.544Z,-5.40
2019-01-23T14:51:24.587Z,-5.30
2019-01-23T14:53:55.630Z,-5.30
2019-01-23T14:56:27.476Z,-5.40
2019-01-23T14:58:57.494Z,-5.40
2019-01-23T15:01:29.070Z,-5.30
2019-01-23T15:04:00.150Z,-5.40
2019-01-23T15:06:31.230Z,-5.40
2019-01-23T15:09:03.142Z,-5.50
2019-01-23T15:11:32.982Z,-5.50
2019-01-23T15:14:06.502Z,-5.60
2019-01-23T15:16:36.469Z,-5.60
2019-01-23T15:19:07.583Z,-5.70
2019-01-23T15:21:38.712Z,-5.70
2019-01-23T15:24:10.505Z,-5.70
2019-01-23T15:26:41.582Z,-5.70
2019-01-23T15:29:12.590Z,-5.70
2019-01-23T15:31:43.671Z,-5.80
2019-01-23T15:34:14.743Z,-5.80
2019-01-23T15:36:44.633Z,-5.70
2019-01-23T15:39:15.633Z,-5.80
2019-01-23T15:41:46.542Z,-5.90
2019-01-23T15:44:16.463Z,-5.90
2019-01-23T15:46:47.593Z,-5.90
2019-01-23T15:49:18.629Z,-5.90
2019-01-23T15:51:48.023Z,-5.90
2019-01-23T15:54:19.152Z,-6.00
2019-01-23T15:56:56.992Z,-6.00
2019-01-23T15:59:28.104Z,-5.90
2019-01-23T16:01:58.030Z,-6.00
2019-01-23T16:04:29.062Z,-6.00
2019-01-23T16:07:02.437Z,-6.00
2019-01-23T16:09:32.442Z,-6.00
2019-01-23T16:12:03.564Z,-6.10
2019-01-23T16:14:34.223Z,-6.00
2019-01-23T16:17:05.507Z,-6.20
2019-01-23T16:19:36.704Z,-6.20
2019-01-23T16:22:08.343Z,-6.20
2019-01-23T16:24:39.303Z,-6.20
2019-01-23T16:27:11.863Z,-6.20
2019-01-23T16:29:42.952Z,-6.10
2019-01-23T16:32:14.235Z,-6.20
2019-01-23T16:34:45.343Z,-6.10
2019-01-23T16:37:16.394Z,-6.10
2019-01-23T16:39:47.471Z,-6.10
2019-01-23T16:42:18.424Z,-6.10
2019-01-23T16:44:49.622Z,-6.10
2019-01-23T16:48:33.864Z,-6.10
2019-01-23T16:51:05.743Z,-6.20
2019-01-23T16:53:36.910Z,-6.10
2019-01-23T16:56:07.943Z,-6.10
2019-01-23T16:58:39.751Z,-6.20
2019-01-23T17:01:10.903Z,-6.20
2019-01-23T17:03:43.111Z,-6.20
2019-01-23T17:06:13.297Z,-6.20
2019-01-23T17:08:43.302Z,-6.20
2019-01-23T17:11:15.313Z,-6.20
2019-01-23T17:13:46.503Z,-6.20
2019-01-23T17:16:17.630Z,-6.30
2019-01-23T17:18:48.622Z,-6.20
2019-01-23T17:21:18.559Z,-6.20
2019-01-23T17:23:48.504Z,-6.30
2019-01-23T17:26:21.144Z,-6.30
2019-01-23T17:28:55.349Z,-6.30
2019-01-23T17:31:31.719Z,-6.30
2019-01-23T17:34:01.063Z,-6.40
2019-01-23T17:36:32.207Z,-6.40
2019-01-23T17:39:03.152Z,-6.30
2019-01-23T17:41:34.241Z,-6.50
2019-01-23T17:44:05.582Z,-6.60
2019-01-23T17:46:36.893Z,-6.60
2019-01-23T17:49:14.653Z,-6.70
2019-01-23T17:51:46.584Z,-6.80
2019-01-23T17:54:19.403Z,-6.70
2019-01-23T17:56:50.945Z,-6.70
2019-01-23T17:59:22.263Z,-6.70
2019-01-23T18:01:52.651Z,-6.70
2019-01-23T18:04:24.066Z,-6.70
2019-01-23T18:06:55.332Z,-6.70
2019-01-23T18:09:26.592Z,-6.70
2019-01-23T18:11:56.184Z,-6.80
2019-01-23T18:14:27.471Z,-6.80
2019-01-23T18:16:58.524Z,-6.80
2019-01-23T18:19:29.867Z,-6.80
2019-01-23T18:22:01.110Z,-6.90
2019-01-23T18:24:33.851Z,-6.90
2019-01-23T18:27:04.642Z,-6.90
2019-01-23T18:29:38.222Z,-6.90
2019-01-23T18:32:10.098Z,-6.90
2019-01-23T18:34:43.287Z,-6.90
2019-01-23T18:37:17.567Z,-6.90
2019-01-23T18:40:07.143Z,-6.90
2019-01-23T18:43:13.074Z,-7.00
2019-01-23T18:45:45.933Z,-6.90
2019-01-23T18:48:34.859Z,-7.00
2019-01-23T18:51:14.651Z,-6.90
2019-01-23T18:53:45.929Z,-6.90
2019-01-23T18:56:17.346Z,-6.90
2019-01-23T18:58:52.851Z,-7.00
2019-01-23T19:01:21.463Z,-6.90
2019-01-23T19:03:52.623Z,-6.90
2019-01-23T19:06:22.832Z,-7.00
2019-01-23T19:08:54.186Z,-7.00
2019-01-23T19:11:25.383Z,-7.00
2019-01-23T19:13:58.147Z,-7.10
2019-01-23T19:16:29.512Z,-7.10
2019-01-23T19:19:00.747Z,-7.10
2019-01-23T19:21:32.541Z,-7.00
2019-01-23T19:24:05.740Z,-7.00
2019-01-23T19:26:38.912Z,-7.00
2019-01-23T19:29:11.392Z,-7.00
2019-01-23T19:31:43.103Z,-7.00
2019-01-23T19:34:14.240Z,-7.00
2019-01-23T19:36:44.447Z,-7.00
2019-01-23T19:39:15.742Z,-7.00
2019-01-23T19:41:49.507Z,-7.00
2019-01-23T19:44:20.943Z,-7.00
2019-01-23T19:46:54.841Z,-7.00
2019-01-23T19:49:27.236Z,-7.00
2019-01-23T19:51:58.504Z,-7.00
2019-01-23T19:54:32.282Z,-7.00
2019-01-23T19:57:06.904Z,-7.00
2019-01-23T19:59:38.245Z,-7.10
2019-01-23T20:02:08.522Z,-7.00
2019-01-23T20:04:39.823Z,-7.00
2019-01-23T20:07:12.585Z,-7.00
2019-01-23T20:09:43.953Z,-7.00
2019-01-23T20:12:15.688Z,-7.00
2019-01-23T20:14:48.749Z,-7.00
2019-01-23T20:17:20.105Z,-7.00
2019-01-23T20:19:52.672Z,-7.00
2019-01-23T20:22:24.039Z,-7.00
2019-01-23T20:24:55.264Z,-7.00
2019-01-23T20:27:27.143Z,-7.10
2019-01-23T20:30:00.690Z,-7.10
2019-01-23T20:32:32.188Z,-7.10
2019-01-23T20:35:05.104Z,-7.10
2019-01-23T20:37:37.711Z,-7.00
2019-01-23T20:40:14.037Z,-7.00
2019-01-23T20:42:45.471Z,-7.10
2019-01-23T20:45:19.146Z,-7.10
2019-01-23T20:47:50.543Z,-7.10
2019-01-23T20:50:27.359Z,-7.10
2019-01-23T20:52:58.473Z,-7.10
2019-01-23T20:55:29.790Z,-7.20
2019-01-23T20:58:00.660Z,-7.20
2019-01-23T21:00:35.263Z,-7.20
2019-01-23T21:03:05.062Z,-7.20
2019-01-23T21:05:39.744Z,-7.20
2019-01-23T21:08:10.303Z,-7.30
2019-01-23T21:10:41.636Z,-7.30
2019-01-23T21:13:15.309Z,-7.30
2019-01-23T21:15:50.813Z,-7.30
2019-01-23T21:18:23.262Z,-7.30
2019-01-23T21:20:54.018Z,-7.30
2019-01-23T21:23:29.142Z,-7.30
2019-01-23T21:26:00.426Z,-7.20
2019-01-23T21:28:33.183Z,-7.20
2019-01-23T21:31:05.456Z,-7.20
2019-01-23T21:33:42.028Z,-7.20
2019-01-23T21:36:10.824Z,-7.20
2019-01-23T21:38:49.745Z,-7.20
2019-01-23T21:41:19.826Z,-7.20
2019-01-23T21:43:51.003Z,-7.20
2019-01-23T21:46:22.671Z,-7.30
2019-01-23T21:48:58.593Z,-7.40
2019-01-23T21:51:28.698Z,-7.40
2019-01-23T21:54:00.005Z,-7.40
2019-01-23T21:56:31.092Z,-7.40
2019-01-23T21:59:02.178Z,-7.30
2019-01-23T22:01:33.261Z,-7.30
2019-01-23T22:04:04.504Z,-7.30
2019-01-23T22:06:35.674Z,-7.30
2019-01-23T22:09:10.415Z,-7.20
2019-01-23T22:11:43.522Z,-7.00
2019-01-23T22:14:12.422Z,-7.00
2019-01-23T22:16:43.547Z,-7.00
2019-01-23T22:19:14.663Z,-7.00
2019-01-23T22:21:46.982Z,-7.00
2019-01-23T22:24:18.042Z,-7.00
2019-01-23T22:26:49.075Z,-7.00
2019-01-23T22:29:20.076Z,-7.00
2019-01-23T22:31:52.422Z,-7.10
2019-01-23T22:34:26.472Z,-7.20
2019-01-23T22:36:58.482Z,-7.20
2019-01-23T22:39:30.143Z,-7.30
2019-01-23T22:42:01.623Z,-7.30
2019-01-23T22:44:34.983Z,-7.30
2019-01-23T22:47:06.751Z,-7.30
2019-01-23T22:49:37.822Z,-7.30
2019-01-23T22:52:08.902Z,-7.30
2019-01-23T22:54:41.051Z,-7.30
2019-01-23T22:57:12.192Z,-7.40
2019-01-23T22:59:44.830Z,-7.40
2019-01-23T23:02:15.783Z,-7.40
2019-01-23T23:04:46.943Z,-7.40
2019-01-23T23:07:18.030Z,-7.40
2019-01-23T23:09:51.529Z,-7.50
2019-01-23T23:12:22.528Z,-7.50
2019-01-23T23:14:55.032Z,-7.50
2019-01-23T23:17:27.063Z,-7.50
2019-01-23T23:19:58.790Z,-7.40
2019-01-23T23:22:28.709Z,-7.50
2019-01-23T23:24:59.782Z,-7.40
2019-01-23T23:27:29.743Z,-7.40
2019-01-23T23:29:59.741Z,-7.40
2019-01-23T23:32:36.513Z,-7.50
2019-01-23T23:35:03.341Z,-7.40
2019-01-23T23:37:34.272Z,-7.50
2019-01-23T23:40:07.591Z,-7.40
2019-01-23T23:42:37.543Z,-7.50
2019-01-23T23:45:11.833Z,-7.50
2019-01-23T23:47:44.354Z,-7.50
2019-01-23T23:50:18.943Z,-7.50
2019-01-23T23:52:51.222Z,-7.50
2019-01-23T23:55:22.286Z,-7.50
2019-01-23T23:57:54.825Z,-7.50
